Wynyard, Canada
Current Conditions -  °F | °C
As of 8:00 AM on Thursday 29 Jan 2015 (Local Time) from CYQV Reporting Station
Overcast Overcast  
Wind Chill: -10°   Ceiling: 1500
Heat Index:   Visibility: 9mi
Dew Point:   Wind: 8mph
Humidity: 85%   Direction: 350°N
Pressure: 30.5"   Gusts: NA
Location:  51.77°N, 104.18°W
Report Text: CYQV 291400Z AUTO 35007KT 9SM OVC015 M16/M18 A3050 RMK SLP375
Loading
Personal Weather Stations






























Interactive Weather Map New forecast layout! Learn more

10-Day Weather Forecast

Advertisements
Track Severe Weather on mobile